createdAt,value
2019-04-05T00:01:45.098Z,12.86
2019-04-05T00:04:13.600Z,12.79
2019-04-05T00:06:42.109Z,12.73
2019-04-05T00:09:10.541Z,12.82
2019-04-05T00:11:39.110Z,12.78
2019-04-05T00:14:07.551Z,12.79
2019-04-05T00:16:36.090Z,12.69
2019-04-05T00:19:04.626Z,12.65
2019-04-05T00:21:33.121Z,12.58
2019-04-05T00:24:01.563Z,12.57
2019-04-05T00:26:30.058Z,12.59
2019-04-05T00:28:58.492Z,12.58
2019-04-05T00:31:27.059Z,12.57
2019-04-05T00:33:55.493Z,12.51
2019-04-05T00:36:23.971Z,12.44
2019-04-05T00:38:52.412Z,12.59
2019-04-05T00:41:20.899Z,12.47
2019-04-05T00:43:49.330Z,12.47
2019-04-05T00:46:17.815Z,12.25
2019-04-05T00:48:46.250Z,12.21
2019-04-05T00:51:14.781Z,12.16
2019-04-05T00:53:43.588Z,12.07
2019-04-05T00:56:12.648Z,12.02
2019-04-05T00:58:41.180Z,11.91
2019-04-05T01:01:09.674Z,11.83
2019-04-05T01:03:38.111Z,11.68
2019-04-05T01:06:06.694Z,11.58
2019-04-05T01:08:35.209Z,11.65
2019-04-05T01:11:03.782Z,11.59
2019-04-05T01:13:32.242Z,11.53
2019-04-05T01:16:00.738Z,11.56
2019-04-05T01:18:29.172Z,11.55
2019-04-05T01:21:00.764Z,11.51
2019-04-05T01:23:29.567Z,11.41
2019-04-05T01:26:00.354Z,11.54
2019-04-05T01:28:28.952Z,11.35
2019-04-05T01:30:57.426Z,11.31
2019-04-05T01:33:25.948Z,10.99
2019-04-05T01:35:54.443Z,11.06
2019-04-05T01:38:22.954Z,11.05
2019-04-05T01:40:51.569Z,10.99
2019-04-05T01:43:20.012Z,11.10
2019-04-05T01:45:53.834Z,10.94
2019-04-05T01:48:18.717Z,10.89
2019-04-05T01:50:47.206Z,10.89
2019-04-05T01:53:15.660Z,10.58
2019-04-05T01:55:44.220Z,10.94
2019-04-05T01:58:12.689Z,10.98
2019-04-05T02:00:41.161Z,10.91
2019-04-05T02:03:09.623Z,10.63
2019-04-05T02:05:38.129Z,10.62
2019-04-05T02:08:06.795Z,10.44
2019-04-05T02:10:35.424Z,10.60
2019-04-05T02:13:03.906Z,10.72
2019-04-05T02:15:33.727Z,11.07
2019-04-05T02:18:02.192Z,10.96
2019-04-05T02:20:30.706Z,10.88
2019-04-05T02:22:59.228Z,10.80
2019-04-05T02:25:27.738Z,10.83
2019-04-05T02:27:56.517Z,10.76
2019-04-05T02:30:25.122Z,10.74
2019-04-05T02:32:53.729Z,10.72
2019-04-05T02:35:22.334Z,10.68
2019-04-05T02:37:50.922Z,10.57
2019-04-05T02:40:19.425Z,10.47
2019-04-05T02:42:50.104Z,10.43
2019-04-05T02:45:19.489Z,10.33
2019-04-05T02:47:53.684Z,10.28
2019-04-05T02:50:24.001Z,10.28
2019-04-05T02:52:55.086Z,10.18
2019-04-05T02:55:24.539Z,10.07
2019-04-05T02:57:53.321Z,9.91
2019-04-05T03:00:21.866Z,9.84
2019-04-05T03:02:51.705Z,9.67
2019-04-05T03:05:20.362Z,9.70
2019-04-05T03:07:48.840Z,9.71
2019-04-05T03:10:54.897Z,9.65
2019-04-05T03:13:24.775Z,9.54
2019-04-05T03:15:55.113Z,9.75
2019-04-05T03:18:25.289Z,9.72
2019-04-05T03:20:55.283Z,9.74
2019-04-05T03:23:23.985Z,9.50
2019-04-05T03:25:52.504Z,9.31
2019-04-05T03:28:21.800Z,9.28
2019-04-05T03:30:50.310Z,9.43
2019-04-05T03:33:18.840Z,9.11
2019-04-05T03:35:47.344Z,8.82
2019-04-05T03:38:15.898Z,8.88
2019-04-05T03:40:44.396Z,9.10
2019-04-05T03:43:13.058Z,9.09
2019-04-05T03:45:41.668Z,9.17
2019-04-05T03:48:10.230Z,8.96
2019-04-05T03:50:38.755Z,8.61
2019-04-05T03:53:07.610Z,8.41
2019-04-05T03:55:36.698Z,8.34
2019-04-05T03:58:05.299Z,8.51
2019-04-05T04:00:33.763Z,8.41
2019-04-05T04:03:02.460Z,8.38
2019-04-05T04:05:30.933Z,8.37
2019-04-05T04:07:59.423Z,8.42
2019-04-05T04:10:28.455Z,8.36
2019-04-05T04:12:56.995Z,8.20
2019-04-05T04:15:25.811Z,7.97
2019-04-05T04:17:54.983Z,8.02
2019-04-05T04:20:39.144Z,7.93
2019-04-05T04:23:08.372Z,8.15
2019-04-05T04:25:38.203Z,8.17
2019-04-05T04:28:07.191Z,7.91
2019-04-05T04:30:36.429Z,7.89
2019-04-05T04:33:05.761Z,7.80
2019-04-05T04:35:34.510Z,8.14
2019-04-05T04:38:03.017Z,8.06
2019-04-05T04:40:31.746Z,7.76
2019-04-05T04:43:01.191Z,7.68
2019-04-05T04:45:30.166Z,7.56
2019-04-05T04:47:58.681Z,7.64
2019-04-05T04:50:27.417Z,7.65
2019-04-05T04:52:56.166Z,7.60
2019-04-05T04:55:24.607Z,7.80
2019-04-05T04:57:53.303Z,7.70
2019-04-05T05:00:22.230Z,7.72
2019-04-05T05:02:50.987Z,7.74
2019-04-05T05:05:19.700Z,7.80
2019-04-05T05:07:48.268Z,7.81
2019-04-05T05:10:16.840Z,8.07
2019-04-05T05:12:45.340Z,8.32
2019-04-05T05:15:14.216Z,8.47
2019-04-05T05:17:42.974Z,8.55
2019-04-05T05:20:11.584Z,8.54
2019-04-05T05:22:40.240Z,8.46
2019-04-05T05:25:08.799Z,8.26
2019-04-05T05:27:37.345Z,8.34
2019-04-05T05:30:12.476Z,8.62
2019-04-05T05:32:41.006Z,8.90
2019-04-05T05:35:10.076Z,9.23
2019-04-05T05:37:38.624Z,9.57
2019-04-05T05:40:07.902Z,9.80
2019-04-05T05:42:36.457Z,9.92
2019-04-05T05:45:09.591Z,9.92
2019-04-05T05:47:50.668Z,9.53
2019-04-05T05:50:08.700Z,9.18
2019-04-05T05:52:37.446Z,8.87
2019-04-05T05:55:06.526Z,8.56
2019-04-05T05:57:35.030Z,8.28
2019-04-05T06:00:05.067Z,8.14
2019-04-05T06:02:33.565Z,8.42
2019-04-05T06:05:02.011Z,8.08
2019-04-05T06:07:30.504Z,7.97
2019-04-05T06:09:58.964Z,7.72
2019-04-05T06:12:27.455Z,7.36
2019-04-05T06:14:56.183Z,7.15
2019-04-05T06:17:24.692Z,7.12
2019-04-05T06:19:53.133Z,7.11
2019-04-05T06:22:21.618Z,7.21
2019-04-05T06:24:50.115Z,7.29
2019-04-05T06:27:18.596Z,7.33
2019-04-05T06:29:47.036Z,7.40
2019-04-05T06:32:15.549Z,7.25
2019-04-05T06:34:44.061Z,7.53
2019-04-05T06:37:12.539Z,7.43
2019-04-05T06:39:40.994Z,7.72
2019-04-05T06:42:09.480Z,7.54
2019-04-05T06:44:37.933Z,7.89
2019-04-05T06:47:06.405Z,7.68
2019-04-05T06:49:34.856Z,7.95
2019-04-05T06:52:03.311Z,7.86
2019-04-05T06:54:31.796Z,8.11
2019-04-05T06:57:00.270Z,7.96
2019-04-05T06:59:28.828Z,7.99
2019-04-05T07:01:57.273Z,8.08
2019-04-05T07:04:25.754Z,8.05
2019-04-05T07:06:54.205Z,7.93
2019-04-05T07:09:22.703Z,8.17
2019-04-05T07:11:51.173Z,8.03
2019-04-05T07:14:19.714Z,7.99
2019-04-05T07:16:48.155Z,7.84
2019-04-05T07:19:16.642Z,7.85
2019-04-05T07:21:45.109Z,7.91
2019-04-05T07:24:13.614Z,7.88
2019-04-05T07:26:42.078Z,7.75
2019-04-05T07:29:10.596Z,7.97
2019-04-05T07:31:39.046Z,7.73
2019-04-05T07:34:07.541Z,8.00
2019-04-05T07:36:36.017Z,7.97
2019-04-05T07:39:06.224Z,7.91
2019-04-05T07:41:34.662Z,8.06
2019-04-05T07:44:03.196Z,7.89
2019-04-05T07:46:31.662Z,8.24
2019-04-05T07:49:00.170Z,8.20
2019-04-05T07:51:28.627Z,8.38
2019-04-05T07:53:57.287Z,8.17
2019-04-05T07:56:25.909Z,8.13
2019-04-05T07:58:54.397Z,8.35
2019-04-05T08:01:22.857Z,8.22
2019-04-05T08:03:51.339Z,8.08
2019-04-05T08:06:19.810Z,8.25
2019-04-05T08:08:51.469Z,8.06
2019-04-05T08:11:19.913Z,8.25
2019-04-05T08:13:48.497Z,8.23
2019-04-05T08:16:17.013Z,8.32
2019-04-05T08:18:57.226Z,8.21
2019-04-05T08:21:15.706Z,8.48
2019-04-05T08:23:44.272Z,8.77
2019-04-05T08:26:12.773Z,8.70
2019-04-05T08:28:41.326Z,8.47
2019-04-05T08:31:11.049Z,8.68
2019-04-05T08:33:39.988Z,8.85
2019-04-05T08:36:08.435Z,8.82
2019-04-05T08:38:39.637Z,8.94
2019-04-05T08:41:07.238Z,8.67
2019-04-05T08:43:36.033Z,8.56
2019-04-05T08:46:04.565Z,8.45
2019-04-05T08:48:33.036Z,8.59
2019-04-05T08:51:01.479Z,8.70
2019-04-05T08:53:29.985Z,8.69
2019-04-05T08:55:58.442Z,8.77
2019-04-05T08:58:33.252Z,8.73
2019-04-05T09:00:57.092Z,9.03
2019-04-05T09:03:25.589Z,8.92
2019-04-05T09:05:54.026Z,9.04
2019-04-05T09:08:22.515Z,9.03
2019-04-05T09:10:50.975Z,8.90
2019-04-05T09:13:19.483Z,9.03
2019-04-05T09:15:47.933Z,9.22
2019-04-05T09:18:16.423Z,9.12
2019-04-05T09:20:44.868Z,8.98
2019-04-05T09:23:13.361Z,8.97
2019-04-05T09:25:42.196Z,9.05
2019-04-05T09:28:10.672Z,9.28
2019-04-05T09:30:39.215Z,9.12
2019-04-05T09:33:07.697Z,8.93
2019-04-05T09:35:36.170Z,9.11
2019-04-05T09:38:04.758Z,9.12
2019-04-05T09:40:33.239Z,9.20
2019-04-05T09:43:01.788Z,9.17
2019-04-05T09:45:30.268Z,9.28
2019-04-05T09:47:58.765Z,9.12
2019-04-05T09:50:27.240Z,9.12
2019-04-05T09:52:55.813Z,9.27
2019-04-05T09:55:24.297Z,9.26
2019-04-05T09:57:52.859Z,9.23
2019-04-05T10:00:23.031Z,9.22
2019-04-05T10:02:51.513Z,9.36
2019-04-05T10:05:20.073Z,9.37
2019-04-05T10:07:54.586Z,9.24
2019-04-05T10:10:18.825Z,9.26
2019-04-05T10:12:47.329Z,9.20
2019-04-05T10:15:15.968Z,9.33
2019-04-05T10:17:44.475Z,9.43
2019-04-05T10:20:13.278Z,9.36
2019-04-05T10:22:41.745Z,9.28
2019-04-05T10:25:10.205Z,9.34
2019-04-05T10:27:38.679Z,9.48
2019-04-05T10:30:11.797Z,9.48
2019-04-05T10:32:40.268Z,9.58
2019-04-05T10:35:08.997Z,9.67
2019-04-05T10:37:37.494Z,9.62
2019-04-05T10:40:07.064Z,9.69
2019-04-05T10:42:36.566Z,9.79
2019-04-05T10:45:08.356Z,9.83
2019-04-05T10:47:36.822Z,9.98
2019-04-05T10:50:07.605Z,10.17
2019-04-05T10:52:36.127Z,10.18
2019-04-05T10:55:05.449Z,10.32
2019-04-05T10:57:33.957Z,10.44
2019-04-05T11:00:02.445Z,10.40
2019-04-05T11:02:30.960Z,10.43
2019-04-05T11:04:59.435Z,10.68
2019-04-05T11:07:27.948Z,10.63
2019-04-05T11:09:56.488Z,10.65
2019-04-05T11:12:24.937Z,10.57
2019-04-05T11:14:53.439Z,10.64
2019-04-05T11:17:21.877Z,10.65
2019-04-05T11:19:50.363Z,10.70
2019-04-05T11:22:20.921Z,10.63
2019-04-05T11:24:49.117Z,10.64
2019-04-05T11:27:17.710Z,10.72
2019-04-05T11:29:46.200Z,10.86
2019-04-05T11:32:14.723Z,11.09
2019-04-05T11:34:43.375Z,11.20
2019-04-05T11:37:11.906Z,11.14
2019-04-05T11:39:40.442Z,11.34
2019-04-05T11:42:08.928Z,11.43
2019-04-05T11:44:38.488Z,11.40
2019-04-05T11:47:07.034Z,11.57
2019-04-05T11:49:35.535Z,11.35
2019-04-05T11:52:04.153Z,11.41
2019-04-05T11:54:32.639Z,12.00
2019-04-05T11:57:01.207Z,11.92
2019-04-05T11:59:29.716Z,12.11
2019-04-05T12:02:02.610Z,12.04
2019-04-05T12:04:31.195Z,12.37
2019-04-05T12:06:59.676Z,12.46
2019-04-05T12:09:28.257Z,12.20
2019-04-05T12:11:57.562Z,12.61
2019-04-05T12:14:30.429Z,12.31
2019-04-05T12:16:56.578Z,12.96
2019-04-05T12:19:25.066Z,13.47
2019-04-05T12:21:53.531Z,13.41
2019-04-05T12:24:21.994Z,14.03
2019-04-05T12:26:50.460Z,13.95
2019-04-05T12:29:19.042Z,13.45
2019-04-05T12:31:47.501Z,14.15
2019-04-05T12:34:16.037Z,15.37
2019-04-05T12:36:44.498Z,14.93
2019-04-05T12:39:13.058Z,14.86
2019-04-05T12:41:44.681Z,15.97
2019-04-05T12:44:15.066Z,18.28
2019-04-05T12:46:45.396Z,17.24
2019-04-05T12:49:13.359Z,15.74
2019-04-05T12:51:43.426Z,15.41
2019-04-05T12:54:12.461Z,15.16
2019-04-05T12:56:40.927Z,14.88
2019-04-05T12:59:09.398Z,14.59
2019-04-05T13:01:37.867Z,14.17
2019-04-05T13:04:06.386Z,14.75
2019-04-05T13:06:34.848Z,15.54
2019-04-05T13:09:06.085Z,14.70
2019-04-05T13:11:34.794Z,17.11
2019-04-05T13:14:03.276Z,15.77
2019-04-05T13:16:31.746Z,16.14
2019-04-05T13:19:00.965Z,15.47
2019-04-05T13:21:32.418Z,15.26
2019-04-05T13:24:00.204Z,15.36
2019-04-05T13:26:28.673Z,14.94
2019-04-05T13:28:57.138Z,15.45
2019-04-05T13:31:25.612Z,17.03
2019-04-05T13:33:55.203Z,17.04
2019-04-05T13:36:24.016Z,16.25
2019-04-05T13:38:55.094Z,18.67
2019-04-05T13:41:22.933Z,19.33
2019-04-05T13:43:51.468Z,19.81
2019-04-05T13:46:22.246Z,19.94
2019-04-05T13:48:50.117Z,19.41
2019-04-05T13:51:27.800Z,18.31
2019-04-05T13:53:48.733Z,18.34
2019-04-05T13:56:17.266Z,19.98
2019-04-05T13:58:46.892Z,20.32
2019-04-05T14:01:15.600Z,19.74
2019-04-05T14:03:44.087Z,19.67
2019-04-05T14:06:12.594Z,19.88
2019-04-05T14:08:41.904Z,19.74
2019-04-05T14:11:11.121Z,20.35
2019-04-05T14:13:42.864Z,19.73
2019-04-05T14:16:12.263Z,19.44
2019-04-05T14:18:40.399Z,18.91
2019-04-05T14:21:08.864Z,18.70
2019-04-05T14:23:37.350Z,17.52
2019-04-05T14:26:05.880Z,16.90
2019-04-05T14:28:34.873Z,16.92
2019-04-05T14:31:03.337Z,17.83
2019-04-05T14:33:31.822Z,17.30
2019-04-05T14:36:00.276Z,17.56
2019-04-05T14:38:31.233Z,17.18
2019-04-05T14:40:59.018Z,17.19
2019-04-05T14:43:30.265Z,17.10
2019-04-05T14:45:58.727Z,16.85
2019-04-05T14:48:28.100Z,16.86
2019-04-05T14:50:57.916Z,17.02
2019-04-05T14:53:27.417Z,17.00
2019-04-05T14:55:59.031Z,16.84
2019-04-05T14:58:26.376Z,16.42
2019-04-05T15:00:54.824Z,15.77
2019-04-05T15:03:23.283Z,16.38
2019-04-05T15:05:51.864Z,16.74
2019-04-05T15:08:21.177Z,16.72
2019-04-05T15:10:51.377Z,16.39
2019-04-05T15:13:20.088Z,16.34
2019-04-05T15:15:48.561Z,15.82
2019-04-05T15:18:19.409Z,16.52
2019-04-05T15:20:47.185Z,16.51
2019-04-05T15:23:15.653Z,16.56
2019-04-05T15:25:44.149Z,16.14
2019-04-05T15:28:12.628Z,16.43
2019-04-05T15:30:41.117Z,16.28
2019-04-05T15:33:09.593Z,16.06
2019-04-05T15:35:38.088Z,16.56
2019-04-05T15:38:06.642Z,16.58
2019-04-05T15:40:35.134Z,15.81
2019-04-05T15:43:03.594Z,16.70
2019-04-05T15:45:32.063Z,16.47
2019-04-05T15:48:00.550Z,16.57
2019-04-05T15:50:29.036Z,16.28
2019-04-05T15:52:57.513Z,16.45
2019-04-05T15:55:25.986Z,16.70
2019-04-05T15:57:54.464Z,16.30
2019-04-05T16:00:40.282Z,16.76
2019-04-05T16:03:08.822Z,17.12
2019-04-05T16:05:37.392Z,16.63
2019-04-05T16:08:05.959Z,16.67
2019-04-05T16:10:34.488Z,16.44
2019-04-05T16:13:03.051Z,16.42
2019-04-05T16:15:31.583Z,16.03
2019-04-05T16:18:00.117Z,15.95
2019-04-05T16:20:28.951Z,15.95
2019-04-05T16:22:57.470Z,15.86
2019-04-05T16:25:25.939Z,15.82
2019-04-05T16:27:54.405Z,15.77
2019-04-05T16:30:22.879Z,15.67
2019-04-05T16:32:51.658Z,15.65
2019-04-05T16:35:20.152Z,15.60
2019-04-05T16:37:48.675Z,15.50
2019-04-05T16:40:18.779Z,15.53
2019-04-05T16:42:47.276Z,15.47
2019-04-05T16:45:17.278Z,15.35
2019-04-05T16:47:45.775Z,15.24
2019-04-05T16:50:14.309Z,15.26
2019-04-05T16:52:45.060Z,15.23
2019-04-05T16:55:13.146Z,14.97
2019-04-05T16:57:41.634Z,14.91
2019-04-05T17:00:12.039Z,14.75
2019-04-05T17:02:40.520Z,14.67
2019-04-05T17:05:09.129Z,14.61
2019-04-05T17:07:37.624Z,14.42
2019-04-05T17:10:06.232Z,14.30
2019-04-05T17:12:34.744Z,14.35
2019-04-05T17:15:03.361Z,14.37
2019-04-05T17:17:31.862Z,13.90
2019-04-05T17:20:00.372Z,13.84
2019-04-05T17:22:28.888Z,13.68
2019-04-05T17:24:57.364Z,13.58
2019-04-05T17:27:25.854Z,13.64
2019-04-05T17:29:54.415Z,13.55
2019-04-05T17:32:22.966Z,13.46
2019-04-05T17:34:51.440Z,13.45
2019-04-05T17:37:19.905Z,13.40
2019-04-05T17:39:48.466Z,13.29
2019-04-05T17:42:16.932Z,13.10
2019-04-05T17:44:45.400Z,13.00
2019-04-05T17:47:13.869Z,13.07
2019-04-05T17:49:42.349Z,12.86
2019-04-05T17:52:10.853Z,12.78
2019-04-05T17:54:39.358Z,12.74
2019-04-05T17:57:07.825Z,12.62
2019-04-05T17:59:36.992Z,12.63
2019-04-05T18:02:05.498Z,12.57
2019-04-05T18:04:33.983Z,12.43
2019-04-05T18:07:02.528Z,12.49
2019-04-05T18:09:31.055Z,12.45
2019-04-05T18:11:59.526Z,12.22
2019-04-05T18:14:28.082Z,12.27
2019-04-05T18:16:56.559Z,12.10
2019-04-05T18:19:25.079Z,12.17
2019-04-05T18:21:53.570Z,12.15
2019-04-05T18:24:22.034Z,12.09
2019-04-05T18:26:50.525Z,12.07
2019-04-05T18:29:18.995Z,11.95
2019-04-05T18:31:47.456Z,11.97
2019-04-05T18:34:15.950Z,12.01
2019-04-05T18:36:44.547Z,11.99
2019-04-05T18:39:13.430Z,11.95
2019-04-05T18:41:42.025Z,11.81
2019-04-05T18:44:10.596Z,12.05
2019-04-05T18:46:51.300Z,11.99
2019-04-05T18:49:19.821Z,11.88
2019-04-05T18:51:48.392Z,11.93
2019-04-05T18:54:22.831Z,11.98
2019-04-05T18:56:51.385Z,12.05
2019-04-05T18:59:19.874Z,12.11
2019-04-05T19:01:48.371Z,12.02
2019-04-05T19:04:16.875Z,11.98
2019-04-05T19:06:45.434Z,11.94
2019-04-05T19:09:13.943Z,12.00
2019-04-05T19:11:42.426Z,11.90
2019-04-05T19:14:10.965Z,11.95
2019-04-05T19:16:39.489Z,11.92
2019-04-05T19:19:08.069Z,11.93
2019-04-05T19:21:36.555Z,11.85
2019-04-05T19:24:05.045Z,11.70
2019-04-05T19:26:33.512Z,11.78
2019-04-05T19:29:02.468Z,11.89
2019-04-05T19:49:02.318Z,11.84
2019-04-05T19:51:30.820Z,11.66
2019-04-05T19:54:01.445Z,11.78
2019-04-05T19:56:29.584Z,11.94
2019-04-05T19:58:58.141Z,11.96
2019-04-05T20:01:26.655Z,11.88
2019-04-05T20:03:55.196Z,11.95
2019-04-05T20:06:23.779Z,11.92
2019-04-05T20:08:53.225Z,11.92
2019-04-05T20:11:21.688Z,11.84
2019-04-05T20:13:50.202Z,11.85
2019-04-05T20:16:18.654Z,11.83
2019-04-05T20:18:47.210Z,11.79
2019-04-05T20:21:15.692Z,11.75
2019-04-05T20:23:47.745Z,11.79
2019-04-05T20:26:14.451Z,11.75
2019-04-05T20:28:42.964Z,11.62
2019-04-05T20:31:11.454Z,11.63
2019-04-05T20:33:40.024Z,11.72
2019-04-05T20:36:08.477Z,11.53
2019-04-05T20:38:37.067Z,11.71
2019-04-05T20:41:05.525Z,11.53
2019-04-05T20:43:34.039Z,11.54
2019-04-05T20:46:02.529Z,11.57
2019-04-05T20:48:31.124Z,11.64
2019-04-05T20:50:59.575Z,11.69
2019-04-05T20:53:28.088Z,11.69
2019-04-05T20:55:56.568Z,11.60
2019-04-05T20:58:25.045Z,11.67
2019-04-05T21:00:53.512Z,11.60
2019-04-05T21:03:22.069Z,11.51
2019-04-05T21:05:50.588Z,11.46
2019-04-05T21:08:19.100Z,11.37
2019-04-05T21:10:47.546Z,11.46
2019-04-05T21:13:16.306Z,11.55
2019-04-05T21:15:45.438Z,11.48
2019-04-05T21:18:13.926Z,11.34
2019-04-05T21:20:42.408Z,11.21
2019-04-05T21:23:10.965Z,11.19
2019-04-05T21:25:39.443Z,11.33
2019-04-05T21:28:08.381Z,11.19
2019-04-05T21:30:36.836Z,11.22
2019-04-05T21:33:05.306Z,11.22
2019-04-05T21:35:34.507Z,11.14
2019-04-05T21:38:03.031Z,10.99
2019-04-05T21:40:31.465Z,10.85
2019-04-05T21:43:00.056Z,10.90
2019-04-05T21:45:32.228Z,10.84
2019-04-05T21:48:00.746Z,10.67
2019-04-05T21:50:30.896Z,10.67
2019-04-05T21:52:59.391Z,10.43
2019-04-05T21:55:28.033Z,10.62
2019-04-05T21:57:56.599Z,10.57
2019-04-05T22:00:35.640Z,10.59
2019-04-05T22:03:04.280Z,10.37
2019-04-05T22:05:33.277Z,10.22
2019-04-05T22:08:01.744Z,9.99
2019-04-05T22:10:30.219Z,10.00
2019-04-05T22:12:58.682Z,10.06
2019-04-05T22:15:27.143Z,9.92
2019-04-05T22:17:56.107Z,9.88
2019-04-05T22:20:24.613Z,9.86
2019-04-05T22:22:53.217Z,9.77
2019-04-05T22:25:21.701Z,9.82
2019-04-05T22:27:50.163Z,9.65
2019-04-05T22:30:18.630Z,9.88
2019-04-05T22:32:47.142Z,9.84
2019-04-05T22:35:15.619Z,9.67
2019-04-05T22:37:44.079Z,9.51
2019-04-05T22:40:12.677Z,9.65
2019-04-05T22:42:41.171Z,9.68
2019-04-05T22:45:10.073Z,9.63
2019-04-05T22:47:38.548Z,9.74
2019-04-05T22:50:07.260Z,9.69
2019-04-05T22:52:35.740Z,9.56
2019-04-05T22:55:11.218Z,9.61
2019-04-05T22:57:35.561Z,9.59
2019-04-05T23:00:06.781Z,9.75
2019-04-05T23:02:35.298Z,9.72
2019-04-05T23:05:04.549Z,9.79
2019-04-05T23:07:33.031Z,9.67
2019-04-05T23:10:01.491Z,9.75
2019-04-05T23:12:29.976Z,9.71
2019-04-05T23:14:58.411Z,9.76
2019-04-05T23:17:26.971Z,9.57
2019-04-05T23:19:55.450Z,9.53
2019-04-05T23:22:24.007Z,9.66
2019-04-05T23:24:52.444Z,9.66
2019-04-05T23:27:21.019Z,9.54
2019-04-05T23:29:49.464Z,9.64
2019-04-05T23:32:17.956Z,9.50
2019-04-05T23:34:46.431Z,9.40
2019-04-05T23:37:14.879Z,9.20
2019-04-05T23:39:43.319Z,9.26
2019-04-05T23:42:11.810Z,9.21
2019-04-05T23:44:40.260Z,9.26
2019-04-05T23:47:08.742Z,9.12
2019-04-05T23:49:37.187Z,9.18
2019-04-05T23:52:05.684Z,9.01
2019-04-05T23:54:34.135Z,8.97
2019-04-05T23:57:02.627Z,8.82
2019-04-05T23:59:31.170Z,8.79
